sensor_id;sensor_type;location;lat;lon;timestamp;P1;durP1;ratioP1;P2;durP2;ratioP2
39020;SDS011;25188;51.958;5.842;2023-04-03T00:01:30;4.20;;;0.93;;
39020;SDS011;25188;51.958;5.842;2023-04-03T00:03:56;3.97;;;0.83;;
39020;SDS011;25188;51.958;5.842;2023-04-03T00:06:22;4.40;;;0.90;;
39020;SDS011;25188;51.958;5.842;2023-04-03T00:08:48;3.30;;;1.10;;
39020;SDS011;25188;51.958;5.842;2023-04-03T00:11:14;2.53;;;0.80;;
39020;SDS011;25188;51.958;5.842;2023-04-03T00:13:40;7.03;;;1.03;;
39020;SDS011;25188;51.958;5.842;2023-04-03T00:16:06;3.60;;;1.00;;
39020;SDS011;25188;51.958;5.842;2023-04-03T00:18:33;3.90;;;1.23;;
39020;SDS011;25188;51.958;5.842;2023-04-03T00:21:00;6.53;;;1.13;;
39020;SDS011;25188;51.958;5.842;2023-04-03T00:23:26;5.33;;;1.60;;
39020;SDS011;25188;51.958;5.842;2023-04-03T00:25:52;3.37;;;0.80;;
39020;SDS011;25188;51.958;5.842;2023-04-03T00:28:18;4.57;;;0.67;;
39020;SDS011;25188;51.958;5.842;2023-04-03T00:30:48;3.20;;;1.13;;
39020;SDS011;25188;51.958;5.842;2023-04-03T00:33:15;4.53;;;0.70;;
39020;SDS011;25188;51.958;5.842;2023-04-03T00:35:41;6.33;;;1.00;;
39020;SDS011;25188;51.958;5.842;2023-04-03T00:38:07;5.50;;;1.20;;
39020;SDS011;25188;51.958;5.842;2023-04-03T00:40:34;4.03;;;1.50;;
39020;SDS011;25188;51.958;5.842;2023-04-03T00:43:05;6.43;;;1.33;;
39020;SDS011;25188;51.958;5.842;2023-04-03T00:45:43;2.97;;;0.90;;
39020;SDS011;25188;51.958;5.842;2023-04-03T00:48:15;2.83;;;1.10;;
39020;SDS011;25188;51.958;5.842;2023-04-03T00:50:45;3.17;;;0.70;;
39020;SDS011;25188;51.958;5.842;2023-04-03T00:53:12;5.80;;;1.00;;
39020;SDS011;25188;51.958;5.842;2023-04-03T00:55:41;2.73;;;1.00;;
39020;SDS011;25188;51.958;5.842;2023-04-03T00:58:07;6.37;;;1.10;;
39020;SDS011;25188;51.958;5.842;2023-04-03T01:00:34;3.17;;;0.70;;
39020;SDS011;25188;51.958;5.842;2023-04-03T01:03:04;4.23;;;0.90;;
39020;SDS011;25188;51.958;5.842;2023-04-03T01:05:30;2.03;;;0.70;;
39020;SDS011;25188;51.958;5.842;2023-04-03T01:07:55;4.40;;;1.00;;
39020;SDS011;25188;51.958;5.842;2023-04-03T01:10:22;4.13;;;0.80;;
39020;SDS011;25188;51.958;5.842;2023-04-03T01:12:50;6.83;;;0.90;;
39020;SDS011;25188;51.958;5.842;2023-04-03T01:15:21;5.30;;;0.83;;
39020;SDS011;25188;51.958;5.842;2023-04-03T01:17:49;5.57;;;1.10;;
39020;SDS011;25188;51.958;5.842;2023-04-03T01:25:51;2.50;;;0.90;;
39020;SDS011;25188;51.958;5.842;2023-04-03T01:28:20;2.87;;;1.00;;
39020;SDS011;25188;51.958;5.842;2023-04-03T01:30:53;3.23;;;1.00;;
39020;SDS011;25188;51.958;5.842;2023-04-03T01:33:40;5.43;;;1.37;;
39020;SDS011;25188;51.958;5.842;2023-04-03T01:36:07;6.87;;;1.07;;
39020;SDS011;25188;51.958;5.842;2023-04-03T01:38:33;4.60;;;1.10;;
39020;SDS011;25188;51.958;5.842;2023-04-03T01:40:58;4.23;;;1.00;;
39020;SDS011;25188;51.958;5.842;2023-04-03T01:43:25;5.33;;;0.83;;
39020;SDS011;25188;51.958;5.842;2023-04-03T01:45:50;3.77;;;1.10;;
39020;SDS011;25188;51.958;5.842;2023-04-03T01:48:17;6.13;;;0.90;;
39020;SDS011;25188;51.958;5.842;2023-04-03T01:50:43;3.60;;;0.80;;
39020;SDS011;25188;51.958;5.842;2023-04-03T01:53:09;3.77;;;0.93;;
39020;SDS011;25188;51.958;5.842;2023-04-03T01:55:35;3.83;;;0.77;;
39020;SDS011;25188;51.958;5.842;2023-04-03T01:58:00;3.87;;;0.70;;
39020;SDS011;25188;51.958;5.842;2023-04-03T02:00:26;4.53;;;0.93;;
39020;SDS011;25188;51.958;5.842;2023-04-03T02:02:52;4.77;;;1.03;;
39020;SDS011;25188;51.958;5.842;2023-04-03T02:05:18;2.53;;;0.70;;
39020;SDS011;25188;51.958;5.842;2023-04-03T02:07:43;1.87;;;0.90;;
39020;SDS011;25188;51.958;5.842;2023-04-03T02:10:09;3.60;;;0.70;;
39020;SDS011;25188;51.958;5.842;2023-04-03T02:12:35;5.03;;;1.03;;
39020;SDS011;25188;51.958;5.842;2023-04-03T02:15:01;2.53;;;0.80;;
39020;SDS011;25188;51.958;5.842;2023-04-03T02:17:27;5.10;;;1.00;;
39020;SDS011;25188;51.958;5.842;2023-04-03T02:19:53;4.80;;;0.97;;
39020;SDS011;25188;51.958;5.842;2023-04-03T02:22:18;5.30;;;1.33;;
39020;SDS011;25188;51.958;5.842;2023-04-03T02:24:45;3.80;;;0.83;;
39020;SDS011;25188;51.958;5.842;2023-04-03T02:27:10;5.17;;;1.00;;
39020;SDS011;25188;51.958;5.842;2023-04-03T02:29:36;5.63;;;1.17;;
39020;SDS011;25188;51.958;5.842;2023-04-03T02:32:02;9.43;;;1.27;;
39020;SDS011;25188;51.958;5.842;2023-04-03T02:34:27;3.37;;;1.03;;
39020;SDS011;25188;51.958;5.842;2023-04-03T02:36:53;6.80;;;1.20;;
39020;SDS011;25188;51.958;5.842;2023-04-03T02:39:19;4.57;;;1.00;;
39020;SDS011;25188;51.958;5.842;2023-04-03T02:41:45;3.90;;;1.00;;
39020;SDS011;25188;51.958;5.842;2023-04-03T02:44:11;5.27;;;1.20;;
39020;SDS011;25188;51.958;5.842;2023-04-03T02:46:37;3.73;;;0.90;;
39020;SDS011;25188;51.958;5.842;2023-04-03T02:49:03;3.63;;;1.00;;
39020;SDS011;25188;51.958;5.842;2023-04-03T02:51:29;4.33;;;0.90;;
39020;SDS011;25188;51.958;5.842;2023-04-03T02:53:55;4.80;;;1.00;;
39020;SDS011;25188;51.958;5.842;2023-04-03T02:56:20;5.27;;;1.47;;
39020;SDS011;25188;51.958;5.842;2023-04-03T02:58:46;6.27;;;1.00;;
39020;SDS011;25188;51.958;5.842;2023-04-03T03:01:12;3.80;;;1.30;;
39020;SDS011;25188;51.958;5.842;2023-04-03T03:03:38;4.70;;;1.13;;
39020;SDS011;25188;51.958;5.842;2023-04-03T03:06:09;3.23;;;1.10;;
39020;SDS011;25188;51.958;5.842;2023-04-03T03:08:37;2.90;;;0.70;;
39020;SDS011;25188;51.958;5.842;2023-04-03T03:11:03;4.87;;;0.83;;
39020;SDS011;25188;51.958;5.842;2023-04-03T03:13:29;3.70;;;1.00;;
39020;SDS011;25188;51.958;5.842;2023-04-03T03:15:56;5.17;;;1.10;;
39020;SDS011;25188;51.958;5.842;2023-04-03T03:18:21;8.33;;;0.80;;
39020;SDS011;25188;51.958;5.842;2023-04-03T03:20:51;4.37;;;0.93;;
39020;SDS011;25188;51.958;5.842;2023-04-03T03:23:24;4.17;;;1.10;;
39020;SDS011;25188;51.958;5.842;2023-04-03T03:25:58;5.23;;;1.33;;
39020;SDS011;25188;51.958;5.842;2023-04-03T03:28:30;5.27;;;0.93;;
39020;SDS011;25188;51.958;5.842;2023-04-03T03:30:56;4.93;;;1.00;;
39020;SDS011;25188;51.958;5.842;2023-04-03T03:33:22;5.60;;;1.33;;
39020;SDS011;25188;51.958;5.842;2023-04-03T03:35:48;3.73;;;1.00;;
39020;SDS011;25188;51.958;5.842;2023-04-03T03:38:13;5.00;;;1.00;;
39020;SDS011;25188;51.958;5.842;2023-04-03T03:40:39;4.07;;;1.30;;
39020;SDS011;25188;51.958;5.842;2023-04-03T03:43:05;3.90;;;1.20;;
39020;SDS011;25188;51.958;5.842;2023-04-03T03:45:31;5.17;;;1.10;;
39020;SDS011;25188;51.958;5.842;2023-04-03T03:47:56;2.13;;;0.87;;
39020;SDS011;25188;51.958;5.842;2023-04-03T03:50:22;8.50;;;1.10;;
39020;SDS011;25188;51.958;5.842;2023-04-03T03:52:48;7.63;;;1.20;;
39020;SDS011;25188;51.958;5.842;2023-04-03T03:55:13;2.17;;;0.90;;
39020;SDS011;25188;51.958;5.842;2023-04-03T03:57:39;6.83;;;0.90;;
39020;SDS011;25188;51.958;5.842;2023-04-03T04:00:05;5.83;;;0.97;;
39020;SDS011;25188;51.958;5.842;2023-04-03T04:02:32;8.10;;;1.30;;
39020;SDS011;25188;51.958;5.842;2023-04-03T04:04:58;3.33;;;0.93;;
39020;SDS011;25188;51.958;5.842;2023-04-03T04:07:23;5.80;;;1.20;;
39020;SDS011;25188;51.958;5.842;2023-04-03T04:09:49;4.67;;;0.87;;
39020;SDS011;25188;51.958;5.842;2023-04-03T04:12:15;4.70;;;1.03;;
39020;SDS011;25188;51.958;5.842;2023-04-03T04:14:40;4.20;;;1.10;;
39020;SDS011;25188;51.958;5.842;2023-04-03T04:17:06;4.63;;;0.90;;
39020;SDS011;25188;51.958;5.842;2023-04-03T04:19:32;4.90;;;1.20;;
39020;SDS011;25188;51.958;5.842;2023-04-03T04:21:58;4.70;;;1.60;;
39020;SDS011;25188;51.958;5.842;2023-04-03T04:24:24;5.90;;;1.27;;
39020;SDS011;25188;51.958;5.842;2023-04-03T04:26:49;6.13;;;1.40;;
39020;SDS011;25188;51.958;5.842;2023-04-03T04:29:15;7.80;;;1.43;;
39020;SDS011;25188;51.958;5.842;2023-04-03T04:31:41;5.47;;;0.93;;
39020;SDS011;25188;51.958;5.842;2023-04-03T04:34:07;5.10;;;1.27;;
39020;SDS011;25188;51.958;5.842;2023-04-03T04:36:33;7.73;;;1.50;;
39020;SDS011;25188;51.958;5.842;2023-04-03T04:38:58;4.07;;;1.13;;
39020;SDS011;25188;51.958;5.842;2023-04-03T04:41:24;6.53;;;1.27;;
39020;SDS011;25188;51.958;5.842;2023-04-03T04:43:50;7.00;;;1.20;;
39020;SDS011;25188;51.958;5.842;2023-04-03T04:46:16;6.53;;;1.30;;
39020;SDS011;25188;51.958;5.842;2023-04-03T04:48:42;5.33;;;1.27;;
39020;SDS011;25188;51.958;5.842;2023-04-03T04:51:08;5.57;;;0.90;;
39020;SDS011;25188;51.958;5.842;2023-04-03T04:53:34;11.20;;;1.40;;
39020;SDS011;25188;51.958;5.842;2023-04-03T04:56:00;5.07;;;1.07;;
39020;SDS011;25188;51.958;5.842;2023-04-03T04:58:26;7.57;;;1.10;;
39020;SDS011;25188;51.958;5.842;2023-04-03T05:01:25;9.50;;;2.23;;
39020;SDS011;25188;51.958;5.842;2023-04-03T05:03:44;6.27;;;1.80;;
39020;SDS011;25188;51.958;5.842;2023-04-03T05:06:09;9.73;;;2.80;;
39020;SDS011;25188;51.958;5.842;2023-04-03T05:08:35;4.73;;;1.87;;
39020;SDS011;25188;51.958;5.842;2023-04-03T05:11:01;6.23;;;1.47;;
39020;SDS011;25188;51.958;5.842;2023-04-03T05:13:26;5.20;;;1.33;;
39020;SDS011;25188;51.958;5.842;2023-04-03T05:15:52;6.70;;;1.60;;
39020;SDS011;25188;51.958;5.842;2023-04-03T05:18:18;4.93;;;1.43;;
39020;SDS011;25188;51.958;5.842;2023-04-03T05:20:43;5.80;;;1.53;;
39020;SDS011;25188;51.958;5.842;2023-04-03T05:23:09;4.40;;;1.33;;
39020;SDS011;25188;51.958;5.842;2023-04-03T05:25:39;6.37;;;1.10;;
39020;SDS011;25188;51.958;5.842;2023-04-03T05:28:05;3.93;;;1.17;;
39020;SDS011;25188;51.958;5.842;2023-04-03T05:30:31;4.23;;;1.00;;
39020;SDS011;25188;51.958;5.842;2023-04-03T05:32:58;3.40;;;0.87;;
39020;SDS011;25188;51.958;5.842;2023-04-03T05:35:23;8.47;;;1.33;;
39020;SDS011;25188;51.958;5.842;2023-04-03T05:37:49;8.60;;;2.20;;
39020;SDS011;25188;51.958;5.842;2023-04-03T05:40:15;7.23;;;2.33;;
39020;SDS011;25188;51.958;5.842;2023-04-03T05:42:41;5.97;;;1.90;;
39020;SDS011;25188;51.958;5.842;2023-04-03T05:45:07;6.17;;;1.83;;
39020;SDS011;25188;51.958;5.842;2023-04-03T05:47:32;7.43;;;1.33;;
39020;SDS011;25188;51.958;5.842;2023-04-03T05:49:58;6.30;;;0.93;;
39020;SDS011;25188;51.958;5.842;2023-04-03T05:54:53;4.70;;;1.47;;
39020;SDS011;25188;51.958;5.842;2023-04-03T05:57:19;5.93;;;1.27;;
39020;SDS011;25188;51.958;5.842;2023-04-03T05:59:45;6.20;;;1.50;;
39020;SDS011;25188;51.958;5.842;2023-04-03T06:02:12;6.97;;;1.00;;
39020;SDS011;25188;51.958;5.842;2023-04-03T06:04:43;6.23;;;1.33;;
39020;SDS011;25188;51.958;5.842;2023-04-03T06:07:23;6.37;;;1.10;;
39020;SDS011;25188;51.958;5.842;2023-04-03T06:09:53;5.17;;;1.00;;
39020;SDS011;25188;51.958;5.842;2023-04-03T06:12:20;6.20;;;1.70;;
39020;SDS011;25188;51.958;5.842;2023-04-03T06:14:47;5.57;;;1.10;;
39020;SDS011;25188;51.958;5.842;2023-04-03T06:17:13;9.10;;;1.33;;
39020;SDS011;25188;51.958;5.842;2023-04-03T06:19:40;4.70;;;1.30;;
39020;SDS011;25188;51.958;5.842;2023-04-03T06:22:06;4.97;;;1.60;;
39020;SDS011;25188;51.958;5.842;2023-04-03T06:24:32;6.97;;;1.30;;
39020;SDS011;25188;51.958;5.842;2023-04-03T06:26:58;4.40;;;0.93;;
39020;SDS011;25188;51.958;5.842;2023-04-03T06:29:24;5.37;;;0.90;;
39020;SDS011;25188;51.958;5.842;2023-04-03T06:31:52;7.97;;;1.33;;
39020;SDS011;25188;51.958;5.842;2023-04-03T06:34:17;6.50;;;1.20;;
39020;SDS011;25188;51.958;5.842;2023-04-03T06:36:43;6.33;;;1.30;;
39020;SDS011;25188;51.958;5.842;2023-04-03T06:39:16;4.33;;;1.27;;
39020;SDS011;25188;51.958;5.842;2023-04-03T06:41:45;7.68;;;1.80;;
39020;SDS011;25188;51.958;5.842;2023-04-03T06:44:11;8.90;;;1.20;;
39020;SDS011;25188;51.958;5.842;2023-04-03T06:46:38;5.43;;;1.23;;
39020;SDS011;25188;51.958;5.842;2023-04-03T06:49:04;4.43;;;1.30;;
39020;SDS011;25188;51.958;5.842;2023-04-03T06:51:32;4.90;;;1.00;;
39020;SDS011;25188;51.958;5.842;2023-04-03T06:53:58;4.77;;;1.07;;
39020;SDS011;25188;51.958;5.842;2023-04-03T06:56:25;7.80;;;1.20;;
39020;SDS011;25188;51.958;5.842;2023-04-03T06:58:52;9.00;;;1.40;;
39020;SDS011;25188;51.958;5.842;2023-04-03T07:01:22;5.13;;;1.07;;
39020;SDS011;25188;51.958;5.842;2023-04-03T07:03:51;5.80;;;1.30;;
39020;SDS011;25188;51.958;5.842;2023-04-03T07:06:18;5.53;;;1.33;;
39020;SDS011;25188;51.958;5.842;2023-04-03T07:08:44;7.13;;;1.30;;
39020;SDS011;25188;51.958;5.842;2023-04-03T07:11:11;7.23;;;1.40;;
39020;SDS011;25188;51.958;5.842;2023-04-03T07:13:37;4.40;;;1.20;;
39020;SDS011;25188;51.958;5.842;2023-04-03T07:16:03;5.53;;;1.30;;
39020;SDS011;25188;51.958;5.842;2023-04-03T07:18:31;8.03;;;1.43;;
39020;SDS011;25188;51.958;5.842;2023-04-03T07:20:57;7.30;;;1.17;;
39020;SDS011;25188;51.958;5.842;2023-04-03T07:23:23;5.83;;;1.20;;
39020;SDS011;25188;51.958;5.842;2023-04-03T07:25:49;11.17;;;1.50;;
39020;SDS011;25188;51.958;5.842;2023-04-03T07:28:17;6.93;;;1.27;;
39020;SDS011;25188;51.958;5.842;2023-04-03T07:30:48;4.67;;;1.10;;
39020;SDS011;25188;51.958;5.842;2023-04-03T07:33:19;8.23;;;1.57;;
39020;SDS011;25188;51.958;5.842;2023-04-03T07:35:46;3.20;;;1.10;;
39020;SDS011;25188;51.958;5.842;2023-04-03T07:38:12;5.63;;;1.30;;
39020;SDS011;25188;51.958;5.842;2023-04-03T07:40:38;3.13;;;0.83;;
39020;SDS011;25188;51.958;5.842;2023-04-03T07:43:04;8.13;;;1.60;;
39020;SDS011;25188;51.958;5.842;2023-04-03T07:45:31;6.20;;;1.13;;
39020;SDS011;25188;51.958;5.842;2023-04-03T07:47:59;6.03;;;1.20;;
39020;SDS011;25188;51.958;5.842;2023-04-03T07:50:25;7.97;;;1.50;;
39020;SDS011;25188;51.958;5.842;2023-04-03T07:52:51;8.50;;;1.40;;
39020;SDS011;25188;51.958;5.842;2023-04-03T07:55:17;6.13;;;1.10;;
39020;SDS011;25188;51.958;5.842;2023-04-03T07:57:43;4.10;;;0.90;;
39020;SDS011;25188;51.958;5.842;2023-04-03T08:00:08;2.47;;;0.93;;
39020;SDS011;25188;51.958;5.842;2023-04-03T08:02:35;8.00;;;1.23;;
39020;SDS011;25188;51.958;5.842;2023-04-03T08:05:00;5.40;;;1.10;;
39020;SDS011;25188;51.958;5.842;2023-04-03T08:07:26;4.07;;;0.87;;
39020;SDS011;25188;51.958;5.842;2023-04-03T08:09:52;4.17;;;1.00;;
39020;SDS011;25188;51.958;5.842;2023-04-03T08:12:18;5.97;;;0.90;;
39020;SDS011;25188;51.958;5.842;2023-04-03T08:14:43;6.93;;;1.00;;
39020;SDS011;25188;51.958;5.842;2023-04-03T08:17:09;4.93;;;0.73;;
39020;SDS011;25188;51.958;5.842;2023-04-03T08:19:40;4.27;;;0.83;;
39020;SDS011;25188;51.958;5.842;2023-04-03T08:22:06;6.07;;;0.80;;
39020;SDS011;25188;51.958;5.842;2023-04-03T08:24:35;2.10;;;0.60;;
39020;SDS011;25188;51.958;5.842;2023-04-03T08:27:00;3.27;;;0.80;;
39020;SDS011;25188;51.958;5.842;2023-04-03T08:29:26;6.87;;;1.00;;
39020;SDS011;25188;51.958;5.842;2023-04-03T08:31:52;6.07;;;0.80;;
39020;SDS011;25188;51.958;5.842;2023-04-03T08:34:19;5.23;;;1.30;;
39020;SDS011;25188;51.958;5.842;2023-04-03T08:36:45;3.27;;;0.80;;
39020;SDS011;25188;51.958;5.842;2023-04-03T08:39:11;4.00;;;0.70;;
39020;SDS011;25188;51.958;5.842;2023-04-03T08:49:52;2.57;;;0.50;;
39020;SDS011;25188;51.958;5.842;2023-04-03T08:55:15;3.63;;;0.50;;
39020;SDS011;25188;51.958;5.842;2023-04-03T08:57:44;2.57;;;0.70;;
39020;SDS011;25188;51.958;5.842;2023-04-03T09:05:11;4.80;;;1.10;;
39020;SDS011;25188;51.958;5.842;2023-04-03T09:10:35;2.57;;;0.60;;
39020;SDS011;25188;51.958;5.842;2023-04-03T09:13:09;2.53;;;0.50;;
39020;SDS011;25188;51.958;5.842;2023-04-03T09:15:47;1.35;;;0.40;;
39020;SDS011;25188;51.958;5.842;2023-04-03T09:18:15;1.37;;;0.40;;
39020;SDS011;25188;51.958;5.842;2023-04-03T09:23:45;1.37;;;0.40;;
39020;SDS011;25188;51.958;5.842;2023-04-03T09:26:23;0.90;;;0.40;;
39020;SDS011;25188;51.958;5.842;2023-04-03T09:28:54;1.30;;;0.30;;
39020;SDS011;25188;51.958;5.842;2023-04-03T09:31:25;1.50;;;0.50;;
39020;SDS011;25188;51.958;5.842;2023-04-03T09:41:29;2.23;;;0.33;;
39020;SDS011;25188;51.958;5.842;2023-04-03T09:43:55;3.07;;;0.40;;
39020;SDS011;25188;51.958;5.842;2023-04-03T09:49:21;1.23;;;0.40;;
39020;SDS011;25188;51.958;5.842;2023-04-03T09:58:01;1.93;;;0.30;;
39020;SDS011;25188;51.958;5.842;2023-04-03T10:00:34;1.23;;;0.30;;
39020;SDS011;25188;51.958;5.842;2023-04-03T10:12:37;1.77;;;0.50;;
39020;SDS011;25188;51.958;5.842;2023-04-03T10:15:10;2.13;;;0.40;;
39020;SDS011;25188;51.958;5.842;2023-04-03T10:18:00;3.80;;;0.40;;
39020;SDS011;25188;51.958;5.842;2023-04-03T10:23:33;2.47;;;0.30;;
39020;SDS011;25188;51.958;5.842;2023-04-03T10:42:08;1.10;;;0.40;;
39020;SDS011;25188;51.958;5.842;2023-04-03T10:48:33;1.58;;;0.40;;
39020;SDS011;25188;51.958;5.842;2023-04-03T11:02:28;1.52;;;0.40;;
39020;SDS011;25188;51.958;5.842;2023-04-03T11:08:32;3.53;;;0.50;;
39020;SDS011;25188;51.958;5.842;2023-04-03T11:17:55;1.63;;;0.40;;
39020;SDS011;25188;51.958;5.842;2023-04-03T11:26:59;1.42;;;0.43;;
39020;SDS011;25188;51.958;5.842;2023-04-03T11:29:40;1.40;;;0.47;;
39020;SDS011;25188;51.958;5.842;2023-04-03T11:34:57;0.85;;;0.30;;
39020;SDS011;25188;51.958;5.842;2023-04-03T11:37:38;0.70;;;0.30;;
39020;SDS011;25188;51.958;5.842;2023-04-03T11:46:54;0.70;;;0.20;;
39020;SDS011;25188;51.958;5.842;2023-04-03T11:58:11;2.92;;;0.40;;
39020;SDS011;25188;51.958;5.842;2023-04-03T12:00:57;2.88;;;0.38;;
39020;SDS011;25188;51.958;5.842;2023-04-03T12:14:23;2.35;;;0.30;;
39020;SDS011;25188;51.958;5.842;2023-04-03T12:19:27;2.03;;;0.70;;
39020;SDS011;25188;51.958;5.842;2023-04-03T12:24:26;2.50;;;0.68;;
39020;SDS011;25188;51.958;5.842;2023-04-03T12:35:04;1.90;;;0.63;;
39020;SDS011;25188;51.958;5.842;2023-04-03T12:46:03;2.97;;;0.60;;
39020;SDS011;25188;51.958;5.842;2023-04-03T12:48:39;2.55;;;0.60;;
39020;SDS011;25188;51.958;5.842;2023-04-03T12:51:16;2.83;;;0.50;;
39020;SDS011;25188;51.958;5.842;2023-04-03T12:53:45;1.33;;;0.57;;
39020;SDS011;25188;51.958;5.842;2023-04-03T12:56:45;2.75;;;0.32;;
39020;SDS011;25188;51.958;5.842;2023-04-03T13:01:41;2.17;;;0.70;;
39020;SDS011;25188;51.958;5.842;2023-04-03T13:04:07;2.80;;;0.60;;
39020;SDS011;25188;51.958;5.842;2023-04-03T13:06:41;2.15;;;0.47;;
39020;SDS011;25188;51.958;5.842;2023-04-03T13:09:22;1.60;;;0.43;;
39020;SDS011;25188;51.958;5.842;2023-04-03T13:11:58;1.90;;;0.50;;
39020;SDS011;25188;51.958;5.842;2023-04-03T13:14:27;1.60;;;0.50;;
39020;SDS011;25188;51.958;5.842;2023-04-03T13:16:57;3.22;;;0.40;;
39020;SDS011;25188;51.958;5.842;2023-04-03T13:19:24;2.47;;;0.60;;
39020;SDS011;25188;51.958;5.842;2023-04-03T13:21:53;2.95;;;0.70;;
39020;SDS011;25188;51.958;5.842;2023-04-03T13:24:43;2.00;;;0.50;;
39020;SDS011;25188;51.958;5.842;2023-04-03T13:27:12;4.55;;;0.60;;
39020;SDS011;25188;51.958;5.842;2023-04-03T13:29:38;3.70;;;0.80;;
39020;SDS011;25188;51.958;5.842;2023-04-03T13:32:05;3.67;;;0.50;;
39020;SDS011;25188;51.958;5.842;2023-04-03T13:34:36;1.65;;;0.50;;
39020;SDS011;25188;51.958;5.842;2023-04-03T13:39:34;4.88;;;0.65;;
39020;SDS011;25188;51.958;5.842;2023-04-03T13:42:14;2.35;;;0.50;;
39020;SDS011;25188;51.958;5.842;2023-04-03T13:44:42;2.92;;;0.70;;
39020;SDS011;25188;51.958;5.842;2023-04-03T13:49:44;2.35;;;0.40;;
39020;SDS011;25188;51.958;5.842;2023-04-03T13:52:30;2.83;;;0.60;;
39020;SDS011;25188;51.958;5.842;2023-04-03T13:55:02;1.60;;;0.50;;
39020;SDS011;25188;51.958;5.842;2023-04-03T13:57:51;2.05;;;0.65;;
39020;SDS011;25188;51.958;5.842;2023-04-03T14:00:27;2.35;;;0.60;;
39020;SDS011;25188;51.958;5.842;2023-04-03T14:03:00;1.70;;;0.60;;
39020;SDS011;25188;51.958;5.842;2023-04-03T14:05:26;3.08;;;0.68;;
39020;SDS011;25188;51.958;5.842;2023-04-03T14:07:53;2.58;;;0.43;;
39020;SDS011;25188;51.958;5.842;2023-04-03T14:10:19;2.17;;;0.50;;
39020;SDS011;25188;51.958;5.842;2023-04-03T14:12:45;2.17;;;0.50;;
39020;SDS011;25188;51.958;5.842;2023-04-03T14:15:19;2.35;;;0.50;;
39020;SDS011;25188;51.958;5.842;2023-04-03T14:17:49;2.95;;;0.50;;
39020;SDS011;25188;51.958;5.842;2023-04-03T14:20:17;1.98;;;0.47;;
39020;SDS011;25188;51.958;5.842;2023-04-03T14:22:45;3.33;;;0.80;;
39020;SDS011;25188;51.958;5.842;2023-04-03T14:25:12;2.22;;;0.50;;
39020;SDS011;25188;51.958;5.842;2023-04-03T14:27:39;2.72;;;0.68;;
39020;SDS011;25188;51.958;5.842;2023-04-03T14:30:08;3.67;;;0.70;;
39020;SDS011;25188;51.958;5.842;2023-04-03T14:32:38;1.48;;;0.45;;
39020;SDS011;25188;51.958;5.842;2023-04-03T14:35:04;3.15;;;0.70;;
39020;SDS011;25188;51.958;5.842;2023-04-03T14:37:31;2.45;;;0.60;;
39020;SDS011;25188;51.958;5.842;2023-04-03T14:39:58;2.83;;;0.77;;
39020;SDS011;25188;51.958;5.842;2023-04-03T14:42:26;3.45;;;0.60;;
39020;SDS011;25188;51.958;5.842;2023-04-03T14:44:58;2.60;;;0.50;;
39020;SDS011;25188;51.958;5.842;2023-04-03T14:47:26;2.60;;;0.50;;
39020;SDS011;25188;51.958;5.842;2023-04-03T14:49:54;1.75;;;0.52;;
39020;SDS011;25188;51.958;5.842;2023-04-03T14:52:21;2.40;;;0.82;;
39020;SDS011;25188;51.958;5.842;2023-04-03T14:54:49;2.40;;;0.52;;
39020;SDS011;25188;51.958;5.842;2023-04-03T14:57:16;2.50;;;0.60;;
39020;SDS011;25188;51.958;5.842;2023-04-03T14:59:43;5.15;;;0.75;;
39020;SDS011;25188;51.958;5.842;2023-04-03T15:02:32;1.58;;;0.55;;
39020;SDS011;25188;51.958;5.842;2023-04-03T15:04:57;2.25;;;0.70;;
39020;SDS011;25188;51.958;5.842;2023-04-03T15:07:24;3.15;;;0.80;;
39020;SDS011;25188;51.958;5.842;2023-04-03T15:09:52;3.55;;;0.60;;
39020;SDS011;25188;51.958;5.842;2023-04-03T15:12:17;2.15;;;0.57;;
39020;SDS011;25188;51.958;5.842;2023-04-03T15:14:43;2.78;;;0.80;;
39020;SDS011;25188;51.958;5.842;2023-04-03T15:17:14;2.30;;;0.70;;
39020;SDS011;25188;51.958;5.842;2023-04-03T15:19:42;3.25;;;0.85;;
39020;SDS011;25188;51.958;5.842;2023-04-03T15:22:13;2.20;;;0.52;;
39020;SDS011;25188;51.958;5.842;2023-04-03T15:24:40;2.38;;;0.60;;
39020;SDS011;25188;51.958;5.842;2023-04-03T15:27:06;4.90;;;0.82;;
39020;SDS011;25188;51.958;5.842;2023-04-03T15:29:31;2.33;;;0.60;;
39020;SDS011;25188;51.958;5.842;2023-04-03T15:31:57;3.95;;;0.80;;
39020;SDS011;25188;51.958;5.842;2023-04-03T15:34:23;2.83;;;0.75;;
39020;SDS011;25188;51.958;5.842;2023-04-03T15:36:49;3.20;;;0.70;;
39020;SDS011;25188;51.958;5.842;2023-04-03T15:39:17;5.88;;;0.80;;
39020;SDS011;25188;51.958;5.842;2023-04-03T15:41:43;2.60;;;0.63;;
39020;SDS011;25188;51.958;5.842;2023-04-03T15:44:10;4.47;;;0.90;;
39020;SDS011;25188;51.958;5.842;2023-04-03T15:46:37;2.55;;;0.60;;
39020;SDS011;25188;51.958;5.842;2023-04-03T15:49:03;4.18;;;0.85;;
39020;SDS011;25188;51.958;5.842;2023-04-03T15:51:30;2.90;;;0.70;;
39020;SDS011;25188;51.958;5.842;2023-04-03T15:53:56;2.53;;;0.80;;
39020;SDS011;25188;51.958;5.842;2023-04-03T15:56:21;2.65;;;0.70;;
39020;SDS011;25188;51.958;5.842;2023-04-03T15:58:47;3.95;;;0.70;;
39020;SDS011;25188;51.958;5.842;2023-04-03T16:01:13;3.75;;;0.70;;
39020;SDS011;25188;51.958;5.842;2023-04-03T16:03:39;4.93;;;1.10;;
39020;SDS011;25188;51.958;5.842;2023-04-03T16:06:10;4.38;;;0.88;;
39020;SDS011;25188;51.958;5.842;2023-04-03T16:08:40;3.58;;;0.80;;
39020;SDS011;25188;51.958;5.842;2023-04-03T16:11:06;3.20;;;0.80;;
39020;SDS011;25188;51.958;5.842;2023-04-03T16:13:32;4.40;;;1.00;;
39020;SDS011;25188;51.958;5.842;2023-04-03T16:15:59;3.85;;;0.75;;
39020;SDS011;25188;51.958;5.842;2023-04-03T16:18:25;2.35;;;0.55;;
39020;SDS011;25188;51.958;5.842;2023-04-03T16:20:51;1.52;;;0.50;;
39020;SDS011;25188;51.958;5.842;2023-04-03T16:23:17;4.53;;;0.70;;
39020;SDS011;25188;51.958;5.842;2023-04-03T16:25:43;1.70;;;0.60;;
39020;SDS011;25188;51.958;5.842;2023-04-03T16:28:11;3.15;;;1.10;;
39020;SDS011;25188;51.958;5.842;2023-04-03T16:30:39;2.50;;;0.60;;
39020;SDS011;25188;51.958;5.842;2023-04-03T16:33:09;3.67;;;0.60;;
39020;SDS011;25188;51.958;5.842;2023-04-03T16:35:36;2.67;;;0.60;;
39020;SDS011;25188;51.958;5.842;2023-04-03T16:38:02;2.97;;;0.80;;
39020;SDS011;25188;51.958;5.842;2023-04-03T16:40:28;5.30;;;1.00;;
39020;SDS011;25188;51.958;5.842;2023-04-03T16:42:54;3.70;;;0.73;;
39020;SDS011;25188;51.958;5.842;2023-04-03T16:45:20;5.07;;;1.15;;
39020;SDS011;25188;51.958;5.842;2023-04-03T16:47:46;3.17;;;0.70;;
39020;SDS011;25188;51.958;5.842;2023-04-03T16:50:11;2.72;;;0.60;;
39020;SDS011;25188;51.958;5.842;2023-04-03T16:52:38;2.22;;;0.60;;
39020;SDS011;25188;51.958;5.842;2023-04-03T16:55:04;2.90;;;0.77;;
39020;SDS011;25188;51.958;5.842;2023-04-03T16:57:30;3.10;;;0.68;;
39020;SDS011;25188;51.958;5.842;2023-04-03T16:59:56;3.17;;;0.50;;
39020;SDS011;25188;51.958;5.842;2023-04-03T17:02:21;2.47;;;0.70;;
39020;SDS011;25188;51.958;5.842;2023-04-03T17:04:51;2.47;;;0.55;;
39020;SDS011;25188;51.958;5.842;2023-04-03T17:07:18;4.13;;;0.70;;
39020;SDS011;25188;51.958;5.842;2023-04-03T17:09:45;3.05;;;0.52;;
39020;SDS011;25188;51.958;5.842;2023-04-03T17:12:11;2.58;;;0.50;;
39020;SDS011;25188;51.958;5.842;2023-04-03T17:14:37;4.85;;;0.60;;
39020;SDS011;25188;51.958;5.842;2023-04-03T17:17:02;3.05;;;0.60;;
39020;SDS011;25188;51.958;5.842;2023-04-03T17:19:29;6.15;;;0.95;;
39020;SDS011;25188;51.958;5.842;2023-04-03T17:21:55;3.65;;;0.65;;
39020;SDS011;25188;51.958;5.842;2023-04-03T17:24:21;1.70;;;0.57;;
39020;SDS011;25188;51.958;5.842;2023-04-03T17:26:47;3.50;;;0.68;;
39020;SDS011;25188;51.958;5.842;2023-04-03T17:29:13;3.05;;;0.60;;
39020;SDS011;25188;51.958;5.842;2023-04-03T17:31:39;4.50;;;0.70;;
39020;SDS011;25188;51.958;5.842;2023-04-03T17:34:05;3.08;;;0.60;;
39020;SDS011;25188;51.958;5.842;2023-04-03T17:36:32;3.20;;;0.55;;
39020;SDS011;25188;51.958;5.842;2023-04-03T17:38:58;3.63;;;0.73;;